Search for airport 
image banner adimage banner adimage banner ad
image banner ad

33CN - Platform Hillhouse

Located in Carpinteria, United States

ICAO - 33CN, IATA -

Data provided by Airmate  

General information

Coordinates: N34°19'52" W119°36'16"
Elevation is 98 feet MSL.
Magnetic variation is 14° East
View others Airports in California

Operational data

Special qualification required
Current time UTC:
Current local time:
Weather at : KSBA - Santa Barbara Muni ( 24 km )
METAR: KSBA 141053Z 00000KT 10SM CLR 15/13 A2988 RMK AO2 SLP118 T01500133 $
TAF: KSBA 141128Z 1412/1512 VRB03KT P6SM SKC FM141800 16007KT P6SM SKC FM142100 24008KT P6SM SKC FM150100 33008KT P6SM SKC FM150900 VRB03KT P6SM SKC
View NOTAMs / SUP AIP / TFR affecting this airport [VIEW]
Communications frequencies: [VIEW]

Runways:

Airport contact information

Address: Carpinteria United States

Satellite view of 33CN